createdAt,value
2019-01-08T00:00:07.769Z,60.99
2019-01-08T00:01:07.751Z,61.02
2019-01-08T00:02:07.731Z,60.55
2019-01-08T00:03:07.467Z,59.95
2019-01-08T00:04:07.698Z,59.88
2019-01-08T00:05:07.684Z,59.41
2019-01-08T00:06:07.661Z,58.84
2019-01-08T00:07:07.644Z,58.37
2019-01-08T00:08:07.622Z,58.34
2019-01-08T00:09:07.366Z,58.09
2019-01-08T00:10:07.585Z,57.49
2019-01-08T00:11:07.573Z,57.14
2019-01-08T00:12:07.551Z,57.23
2019-01-08T00:13:07.283Z,56.29
2019-01-08T00:14:07.513Z,56.16
2019-01-08T00:15:07.505Z,56.48
2019-01-08T00:16:07.480Z,56.38
2019-01-08T00:17:07.211Z,57.33
2019-01-08T00:18:07.439Z,57.04
2019-01-08T00:19:07.426Z,56.76
2019-01-08T00:20:07.401Z,57.04
2019-01-08T00:21:07.381Z,57.14
2019-01-08T00:22:07.370Z,56.95
2019-01-08T00:23:07.352Z,57.8
2019-01-08T00:24:07.089Z,58.81
2019-01-08T00:25:07.311Z,58.53
2019-01-08T00:26:07.296Z,58.94
2019-01-08T00:27:07.269Z,58.94
2019-01-08T00:28:07.250Z,59.03
2019-01-08T00:29:07.235Z,59.41
2019-01-08T00:30:07.213Z,59.5
2019-01-08T00:31:06.953Z,59.88
2019-01-08T00:32:07.187Z,60.07
2019-01-08T00:33:07.164Z,60.07
2019-01-08T00:34:07.142Z,60.42
2019-01-08T00:35:07.133Z,61.02
2019-01-08T00:36:07.103Z,61.02
2019-01-08T00:37:07.089Z,60.83
2019-01-08T00:38:07.069Z,60.17
2019-01-08T00:39:07.048Z,59.76
2019-01-08T00:40:07.029Z,59.76
2019-01-08T00:41:07.013Z,59.98
2019-01-08T00:42:06.995Z,59.95
2019-01-08T00:43:06.975Z,60.04
2019-01-08T00:44:06.956Z,59.85
2019-01-08T00:45:06.940Z,60.14
2019-01-08T00:46:06.920Z,59.47
2019-01-08T00:47:06.901Z,59.57
2019-01-08T00:48:06.880Z,58.72
2019-01-08T00:49:06.873Z,58.34
2019-01-08T00:50:06.846Z,57.58
2019-01-08T00:51:06.827Z,57.39
2019-01-08T00:52:06.810Z,57.01
2019-01-08T00:53:06.790Z,56.92
2019-01-08T00:54:06.771Z,56.82
2019-01-08T00:55:06.750Z,57.11
2019-01-08T00:56:06.738Z,57.3
2019-01-08T00:57:06.711Z,57.11
2019-01-08T00:58:06.449Z,57.2
2019-01-08T00:59:06.678Z,57.01
2019-01-08T01:00:06.660Z,56.54
2019-01-08T01:01:06.638Z,56.35
2019-01-08T01:02:06.620Z,56.35
2019-01-08T01:03:06.608Z,56.63
2019-01-08T01:04:06.586Z,56.92
2019-01-08T01:05:06.561Z,56.73
2019-01-08T01:06:06.300Z,56.16
2019-01-08T01:07:06.533Z,56.16
2019-01-08T01:08:06.508Z,55.98
2019-01-08T01:09:06.490Z,55.6
2019-01-08T01:10:06.475Z,55.22
2019-01-08T01:11:06.453Z,54.74
2019-01-08T01:12:06.435Z,53.89
2019-01-08T01:13:06.417Z,53.33
2019-01-08T01:14:06.399Z,52.29
2019-01-08T01:15:06.381Z,52
2019-01-08T01:16:06.364Z,52.1
2019-01-08T01:17:06.343Z,51.25
2019-01-08T01:18:06.331Z,51.43
2019-01-08T01:19:06.308Z,51.72
2019-01-08T01:20:06.286Z,52
2019-01-08T01:21:06.273Z,51.91
2019-01-08T01:22:06.248Z,51.34
2019-01-08T01:23:06.228Z,51.06
2019-01-08T01:24:06.211Z,51.15
2019-01-08T01:25:05.942Z,51.34
2019-01-08T01:26:06.176Z,51.34
2019-01-08T01:27:06.152Z,51.34
2019-01-08T01:28:06.137Z,51.43
2019-01-08T01:29:06.122Z,50.68
2019-01-08T01:30:06.102Z,51.06
2019-01-08T01:31:06.080Z,50.49
2019-01-08T01:32:06.062Z,50.59
2019-01-08T01:33:06.045Z,50.59
2019-01-08T01:34:06.023Z,50.21
2019-01-08T01:35:06.007Z,50.3
2019-01-08T01:36:05.988Z,49.92
2019-01-08T01:37:05.968Z,49.92
2019-01-08T01:38:06.032Z,49.64
2019-01-08T01:39:05.681Z,49.92
2019-01-08T01:40:05.911Z,50.02
2019-01-08T01:41:05.892Z,49.83
2019-01-08T01:42:05.879Z,50.02
2019-01-08T01:43:05.855Z,50.21
2019-01-08T01:44:05.841Z,50.11
2019-01-08T01:45:05.819Z,50.78
2019-01-08T01:46:05.809Z,50.68
2019-01-08T01:47:05.782Z,50.96
2019-01-08T01:48:05.762Z,52.1
2019-01-08T01:49:05.746Z,52.57
2019-01-08T01:50:05.728Z,52.48
2019-01-08T01:51:05.715Z,52.67
2019-01-08T01:52:05.692Z,52.57
2019-01-08T01:53:05.685Z,52.57
2019-01-08T01:54:05.649Z,52.95
2019-01-08T01:55:05.630Z,53.05
2019-01-08T01:56:05.617Z,53.14
2019-01-08T01:57:05.594Z,52.95
2019-01-08T01:58:05.577Z,53.23
2019-01-08T01:59:10.747Z,53.23
2019-01-08T02:00:05.538Z,53.33
2019-01-08T02:01:05.524Z,53.33
2019-01-08T02:02:05.503Z,53.33
2019-01-08T02:03:05.484Z,53.42
2019-01-08T02:04:05.472Z,53.42
2019-01-08T02:05:05.447Z,53.8
2019-01-08T02:06:05.439Z,53.52
2019-01-08T02:07:05.415Z,53.42
2019-01-08T02:08:05.389Z,53.52
2019-01-08T02:09:05.373Z,53.23
2019-01-08T02:10:05.351Z,53.05
2019-01-08T02:11:05.343Z,53.42
2019-01-08T02:12:05.319Z,53.52
2019-01-08T02:13:05.301Z,53.52
2019-01-08T02:14:05.277Z,53.61
2019-01-08T02:15:05.260Z,53.8
2019-01-08T02:16:04.995Z,53.7
2019-01-08T02:17:05.221Z,54.08
2019-01-08T02:18:05.200Z,54.37
2019-01-08T02:19:05.189Z,54.55
2019-01-08T02:20:05.167Z,54.27
2019-01-08T02:21:05.153Z,54.37
2019-01-08T02:22:05.125Z,54.27
2019-01-08T02:23:05.105Z,54.18
2019-01-08T02:24:05.093Z,53.99
2019-01-08T02:25:05.077Z,54.08
2019-01-08T02:26:05.051Z,54.08
2019-01-08T02:27:05.036Z,53.7
2019-01-08T02:28:04.764Z,53.23
2019-01-08T02:29:05.007Z,53.14
2019-01-08T02:30:04.999Z,53.23
2019-01-08T02:31:04.965Z,53.42
2019-01-08T02:32:04.940Z,53.05
2019-01-08T02:33:04.925Z,53.05
2019-01-08T02:34:04.931Z,52.95
2019-01-08T02:35:04.893Z,53.7
2019-01-08T02:36:04.872Z,54.46
2019-01-08T02:37:04.850Z,54.93
2019-01-08T02:38:04.854Z,54.65
2019-01-08T02:39:04.813Z,54.65
2019-01-08T02:40:04.791Z,55.12
2019-01-08T02:41:04.777Z,55.22
2019-01-08T02:42:04.904Z,55.03
2019-01-08T02:43:04.745Z,54.27
2019-01-08T02:44:05.005Z,53.99
2019-01-08T02:45:04.715Z,54.84
2019-01-08T02:46:04.833Z,54.84
2019-01-08T02:47:04.673Z,55.03
2019-01-08T02:48:04.644Z,54.46
2019-01-08T02:49:04.652Z,54.18
2019-01-08T02:50:04.608Z,54.18
2019-01-08T02:51:04.586Z,54.27
2019-01-08T02:52:04.573Z,53.42
2019-01-08T02:53:04.573Z,53.05
2019-01-08T02:54:04.281Z,52.76
2019-01-08T02:55:04.514Z,53.14
2019-01-08T02:56:04.491Z,52.57
2019-01-08T02:57:04.478Z,52.48
2019-01-08T02:58:04.460Z,52.48
2019-01-08T02:59:04.439Z,52.38
2019-01-08T03:00:04.188Z,52.19
2019-01-08T03:01:04.403Z,52.19
2019-01-08T03:02:04.384Z,52
2019-01-08T03:03:04.362Z,51.43
2019-01-08T03:04:04.102Z,51.06
2019-01-08T03:05:04.325Z,50.49
2019-01-08T03:06:04.308Z,50.11
2019-01-08T03:07:04.285Z,50.02
2019-01-08T03:08:04.271Z,50.02
2019-01-08T03:09:04.252Z,49.35
2019-01-08T03:10:04.277Z,49.35
2019-01-08T03:11:04.216Z,49.16
2019-01-08T03:12:04.193Z,49.07
2019-01-08T03:13:04.173Z,49.35
2019-01-08T03:14:04.162Z,49.45
2019-01-08T03:15:03.891Z,49.16
2019-01-08T03:16:04.122Z,48.69
2019-01-08T03:17:04.107Z,48.69
2019-01-08T03:18:04.081Z,47.94
2019-01-08T03:19:04.063Z,47.66
2019-01-08T03:20:04.051Z,47.56
2019-01-08T03:21:03.779Z,47.28
2019-01-08T03:22:04.006Z,47.37
2019-01-08T03:23:03.988Z,47.09
2019-01-08T03:24:03.973Z,46.71
2019-01-08T03:25:03.949Z,46.9
2019-01-08T03:26:03.931Z,47.18
2019-01-08T03:27:03.915Z,47.18
2019-01-08T03:28:03.899Z,47.28
2019-01-08T03:29:03.874Z,47.18
2019-01-08T03:30:03.862Z,47.47
2019-01-08T03:31:03.842Z,47.66
2019-01-08T03:32:03.820Z,47.75
2019-01-08T03:33:03.807Z,47.28
2019-01-08T03:34:03.786Z,47.56
2019-01-08T03:35:03.781Z,47.75
2019-01-08T03:36:03.752Z,47.37
2019-01-08T03:37:03.731Z,47.18
2019-01-08T03:38:03.708Z,46.61
2019-01-08T03:39:03.687Z,46.61
2019-01-08T03:40:03.668Z,46.8
2019-01-08T03:41:03.654Z,46.52
2019-01-08T03:42:03.386Z,46.52
2019-01-08T03:43:03.693Z,46.52
2019-01-08T03:44:03.595Z,46.9
2019-01-08T03:45:03.586Z,47.28
2019-01-08T03:46:03.558Z,47.47
2019-01-08T03:47:03.538Z,47.94
2019-01-08T03:48:03.520Z,48.13
2019-01-08T03:49:03.500Z,48.79
2019-01-08T03:50:03.480Z,48.69
2019-01-08T03:51:03.466Z,48.69
2019-01-08T03:52:03.443Z,48.79
2019-01-08T03:53:03.424Z,48.97
2019-01-08T03:54:03.405Z,49.26
2019-01-08T03:55:03.391Z,49.54
2019-01-08T03:56:03.369Z,50.02
2019-01-08T03:57:03.351Z,49.83
2019-01-08T03:58:03.332Z,50.3
2019-01-08T03:59:03.314Z,50.3
2019-01-08T04:00:03.295Z,50.59
2019-01-08T04:01:03.277Z,51.34
2019-01-08T04:02:03.256Z,52
2019-01-08T04:03:03.241Z,52.19
2019-01-08T04:04:03.219Z,52.57
2019-01-08T04:05:02.956Z,53.42
2019-01-08T04:06:03.185Z,54.08
2019-01-08T04:07:03.161Z,54.46
2019-01-08T04:08:03.147Z,54.55
2019-01-08T04:09:03.128Z,54.93
2019-01-08T04:10:03.110Z,55.41
2019-01-08T04:11:03.090Z,55.88
2019-01-08T04:12:03.071Z,56.92
2019-01-08T04:13:03.056Z,57.39
2019-01-08T04:14:03.039Z,58.15
2019-01-08T04:15:03.019Z,59.09
2019-01-08T04:16:03.002Z,59.66
2019-01-08T04:17:03.049Z,60.14
2019-01-08T04:18:02.956Z,60.42
2019-01-08T04:19:02.943Z,59.76
2019-01-08T04:20:02.924Z,59.76
2019-01-08T04:21:02.652Z,59.76
2019-01-08T04:22:02.891Z,60.42
2019-01-08T04:23:02.866Z,60.33
2019-01-08T04:24:02.846Z,60.42
2019-01-08T04:25:02.832Z,60.52
2019-01-08T04:26:02.814Z,60.42
2019-01-08T04:27:02.790Z,60.14
2019-01-08T04:28:02.774Z,59.66
2019-01-08T04:29:02.750Z,59.28
2019-01-08T04:30:02.741Z,58.84
2019-01-08T04:31:02.720Z,58.44
2019-01-08T04:32:02.704Z,58.25
2019-01-08T04:33:02.679Z,57.96
2019-01-08T04:34:02.662Z,57.77
2019-01-08T04:35:02.645Z,57.87
2019-01-08T04:36:02.626Z,57.11
2019-01-08T04:37:02.609Z,57.68
2019-01-08T04:38:02.589Z,57.68
2019-01-08T04:39:02.573Z,57.39
2019-01-08T04:40:02.550Z,57.68
2019-01-08T04:41:02.533Z,57.68
2019-01-08T04:42:02.513Z,57.39
2019-01-08T04:43:02.496Z,57.11
2019-01-08T04:44:02.476Z,57.3
2019-01-08T04:45:02.552Z,57.39
2019-01-08T04:46:02.445Z,57.39
2019-01-08T04:47:02.422Z,57.33
2019-01-08T04:48:02.401Z,56.82
2019-01-08T04:49:02.387Z,57.11
2019-01-08T04:50:02.372Z,56.92
2019-01-08T04:51:02.345Z,57.11
2019-01-08T04:52:02.329Z,56.73
2019-01-08T04:53:02.315Z,57.23
2019-01-08T04:54:02.291Z,57.33
2019-01-08T04:55:02.270Z,57.23
2019-01-08T04:56:02.253Z,57.2
2019-01-08T04:57:02.236Z,57.3
2019-01-08T04:58:01.969Z,57.11
2019-01-08T04:59:02.199Z,56.73
2019-01-08T05:00:02.191Z,56.92
2019-01-08T05:01:02.164Z,56.26
2019-01-08T05:02:02.144Z,56.35
2019-01-08T05:03:02.129Z,55.6
2019-01-08T05:04:02.114Z,55.31
2019-01-08T05:05:02.090Z,54.87
2019-01-08T05:06:02.107Z,54.87
2019-01-08T05:07:02.054Z,54.46
2019-01-08T05:08:02.033Z,53.8
2019-01-08T05:09:01.764Z,54.08
2019-01-08T05:10:01.999Z,54.27
2019-01-08T05:11:01.976Z,53.33
2019-01-08T05:12:01.967Z,53.33
2019-01-08T05:13:01.942Z,53.23
2019-01-08T05:14:01.923Z,52.95
2019-01-08T05:15:01.904Z,52.19
2019-01-08T05:16:01.885Z,52.38
2019-01-08T05:17:01.871Z,52
2019-01-08T05:18:01.845Z,51.15
2019-01-08T05:19:01.580Z,51.15
2019-01-08T05:20:01.811Z,50.59
2019-01-08T05:21:01.542Z,50.21
2019-01-08T05:22:01.774Z,50.02
2019-01-08T05:23:01.756Z,50.11
2019-01-08T05:24:01.737Z,50.14
2019-01-08T05:25:01.727Z,50.21
2019-01-08T05:26:01.697Z,50.4
2019-01-08T05:27:01.679Z,50.49
2019-01-08T05:28:01.661Z,50.33
2019-01-08T05:29:01.653Z,50.21
2019-01-08T05:30:10.263Z,49.54
2019-01-08T05:31:01.609Z,48.69
2019-01-08T05:32:01.664Z,48.53
2019-01-08T05:33:01.569Z,47.37
2019-01-08T05:34:01.303Z,46.61
2019-01-08T05:35:01.532Z,46.36
2019-01-08T05:36:01.512Z,45.6
2019-01-08T05:37:01.496Z,45.31
2019-01-08T05:38:01.478Z,44.65
2019-01-08T05:39:01.463Z,44.65
2019-01-08T05:40:01.454Z,44.46
2019-01-08T05:41:01.436Z,44.09
2019-01-08T05:42:01.161Z,44.09
2019-01-08T05:43:01.387Z,43.8
2019-01-08T05:44:01.370Z,43.71
2019-01-08T05:45:01.349Z,43.23
2019-01-08T05:46:01.328Z,43.23
2019-01-08T05:47:01.309Z,43.14
2019-01-08T05:48:01.044Z,42.85
2019-01-08T05:49:01.277Z,42.85
2019-01-08T05:50:01.255Z,43.14
2019-01-08T05:51:01.242Z,43.23
2019-01-08T05:52:01.220Z,43.23
2019-01-08T05:53:01.198Z,43.04
2019-01-08T05:54:01.199Z,42.76
2019-01-08T05:55:01.159Z,42.66
2019-01-08T05:56:01.144Z,42.76
2019-01-08T05:57:01.126Z,42.95
2019-01-08T05:58:01.105Z,43.52
2019-01-08T05:59:01.096Z,44.18
2019-01-08T06:00:01.072Z,44.65
2019-01-08T06:01:01.051Z,44.65
2019-01-08T06:02:01.033Z,44.65
2019-01-08T06:03:01.013Z,45.03
2019-01-08T06:04:00.997Z,44.93
2019-01-08T06:05:01.067Z,44.84
2019-01-08T06:06:00.958Z,45.03
2019-01-08T06:07:00.949Z,45.5
2019-01-08T06:08:00.930Z,45.6
2019-01-08T06:09:00.903Z,45.41
2019-01-08T06:10:00.886Z,45.5
2019-01-08T06:11:00.868Z,45.69
2019-01-08T06:12:00.849Z,45.88
2019-01-08T06:13:00.833Z,46.26
2019-01-08T06:14:00.815Z,46.73
2019-01-08T06:15:00.792Z,46.36
2019-01-08T06:16:00.780Z,46.36
2019-01-08T06:17:00.546Z,46.36
2019-01-08T06:18:00.739Z,46.64
2019-01-08T06:19:00.719Z,46.73
2019-01-08T06:20:00.707Z,46.64
2019-01-08T06:21:00.683Z,47.3
2019-01-08T06:22:00.670Z,47.68
2019-01-08T06:23:00.650Z,47.39
2019-01-08T06:24:00.635Z,47.96
2019-01-08T06:25:00.828Z,48.82
2019-01-08T06:26:00.343Z,48.72
2019-01-08T06:27:00.574Z,48.63
2019-01-08T06:28:00.558Z,48.72
2019-01-08T06:29:00.291Z,49.1
2019-01-08T06:30:00.517Z,49.01
2019-01-08T06:31:00.254Z,49.01
2019-01-08T06:32:00.484Z,49.38
2019-01-08T06:33:00.462Z,49.48
2019-01-08T06:34:00.445Z,49.38
2019-01-08T06:35:00.433Z,49.19
2019-01-08T06:36:00.411Z,49.29
2019-01-08T06:37:00.399Z,49.1
2019-01-08T06:38:00.376Z,49.29
2019-01-08T06:39:00.356Z,49.66
2019-01-08T06:40:00.360Z,50.04
2019-01-08T06:41:00.482Z,49.85
2019-01-08T06:42:00.302Z,50.04
2019-01-08T06:43:00.358Z,50.52
2019-01-08T06:44:00.014Z,50.04
2019-01-08T06:45:00.247Z,50.14
2019-01-08T06:46:00.226Z,50.42
2019-01-08T06:47:00.218Z,50.71
2019-01-08T06:48:00.189Z,51.37
2019-01-08T06:49:00.170Z,52.41
2019-01-08T06:50:00.271Z,52.6
2019-01-08T06:51:00.134Z,53.17
2019-01-08T06:52:00.115Z,53.36
2019-01-08T06:52:59.851Z,53.07
2019-01-08T06:54:00.087Z,53.26
2019-01-08T06:55:00.091Z,52.88
2019-01-08T06:56:00.044Z,53.36
2019-01-08T06:57:00.033Z,52.31
2019-01-08T06:58:00.014Z,52.22
2019-01-08T06:58:59.988Z,51.75
2019-01-08T06:59:59.971Z,51.84
2019-01-08T07:00:59.954Z,50.9
2019-01-08T07:01:59.937Z,51.09
2019-01-08T07:02:59.995Z,50.99
2019-01-08T07:03:59.898Z,51.93
2019-01-08T07:04:59.878Z,52.41
2019-01-08T07:05:59.860Z,53.45
2019-01-08T07:06:59.844Z,54.49
2019-01-08T07:07:59.822Z,55.25
2019-01-08T07:08:59.806Z,55.53
2019-01-08T07:09:59.785Z,55.72
2019-01-08T07:10:59.768Z,55.72
2019-01-08T07:11:59.750Z,55.06
2019-01-08T07:12:59.731Z,54.77
2019-01-08T07:13:59.714Z,54.96
2019-01-08T07:14:59.693Z,54.49
2019-01-08T07:15:59.679Z,54.21
2019-01-08T07:16:59.408Z,53.26
2019-01-08T07:17:59.639Z,52.41
2019-01-08T07:18:59.623Z,51.56
2019-01-08T07:19:59.601Z,51.18
2019-01-08T07:20:59.583Z,51.18
2019-01-08T07:21:59.658Z,51.84
2019-01-08T07:22:59.547Z,51.84
2019-01-08T07:23:59.529Z,51.18
2019-01-08T07:24:59.511Z,51.28
2019-01-08T07:25:59.493Z,51.93
2019-01-08T07:26:59.475Z,51.56
2019-01-08T07:27:59.454Z,52.31
2019-01-08T07:28:59.454Z,52.22
2019-01-08T07:29:59.418Z,52.22
2019-01-08T07:30:59.154Z,52.41
2019-01-08T07:31:59.388Z,52.41
2019-01-08T07:32:59.381Z,52.98
2019-01-08T07:33:59.347Z,53.36
2019-01-08T07:34:59.325Z,53.45
2019-01-08T07:35:59.310Z,53.83
2019-01-08T07:36:59.295Z,54.02
2019-01-08T07:37:59.272Z,54.58
2019-01-08T07:38:59.253Z,55.06
2019-01-08T07:39:59.236Z,55.06
2019-01-08T07:40:59.219Z,55.06
2019-01-08T07:41:58.952Z,54.68
2019-01-08T07:42:59.186Z,54.87
2019-01-08T07:43:59.164Z,54.87
2019-01-08T07:44:59.148Z,54.96
2019-01-08T07:45:59.131Z,54.68
2019-01-08T07:46:58.861Z,53.92
2019-01-08T07:47:59.096Z,54.02
2019-01-08T07:48:58.826Z,54.21
2019-01-08T07:49:59.055Z,53.26
2019-01-08T07:50:59.035Z,53.26
2019-01-08T07:51:59.019Z,53.07
2019-01-08T07:52:59.002Z,52.79
2019-01-08T07:53:58.980Z,52.88
2019-01-08T07:54:58.969Z,52.98
2019-01-08T07:55:58.957Z,53.55
2019-01-08T07:56:58.930Z,53.17
2019-01-08T07:57:58.911Z,53.55
2019-01-08T07:58:58.891Z,53.64
2019-01-08T07:59:58.873Z,53.83
2019-01-08T08:00:58.855Z,53.45
2019-01-08T08:01:58.841Z,54.11
2019-01-08T08:02:58.823Z,54.11
2019-01-08T08:03:58.804Z,54.11
2019-01-08T08:04:58.536Z,54.87
2019-01-08T08:05:58.765Z,55.53
2019-01-08T08:06:58.750Z,55.91
2019-01-08T08:07:58.730Z,55.94
2019-01-08T08:08:58.717Z,56.48
2019-01-08T08:09:58.692Z,57.14
2019-01-08T08:10:58.429Z,57.8
2019-01-08T08:11:58.661Z,57.45
2019-01-08T08:12:58.392Z,58.02
2019-01-08T08:13:58.732Z,58.75
2019-01-08T08:14:58.613Z,59.53
2019-01-08T08:15:58.587Z,59.79
2019-01-08T08:16:58.566Z,59.22
2019-01-08T08:17:58.552Z,59.69
2019-01-08T08:18:58.529Z,60.1
2019-01-08T08:19:58.518Z,60.83
2019-01-08T08:20:58.262Z,61.4
2019-01-08T08:21:58.483Z,61.24
2019-01-08T08:22:58.462Z,61.24
2019-01-08T08:23:58.442Z,61.87
2019-01-08T08:24:58.489Z,62.15
2019-01-08T08:25:58.406Z,61.99
2019-01-08T08:26:58.392Z,61.71
2019-01-08T08:27:58.525Z,62.44
2019-01-08T08:28:58.355Z,62.37
2019-01-08T08:29:58.336Z,63.39
2019-01-08T08:31:01.482Z,63.48
2019-01-08T08:31:58.300Z,63.29
2019-01-08T08:32:58.283Z,63.48
2019-01-08T08:33:58.262Z,63.42
2019-01-08T08:34:58.245Z,63.67
2019-01-08T08:35:58.229Z,63.51
2019-01-08T08:36:58.211Z,63.98
2019-01-08T08:37:58.190Z,63.76
2019-01-08T08:38:58.176Z,63.6
2019-01-08T08:39:58.161Z,64.64
2019-01-08T08:40:58.141Z,65.18
2019-01-08T08:41:58.120Z,65.5
2019-01-08T08:42:58.106Z,66.06
2019-01-08T08:43:58.089Z,65.88
2019-01-08T08:44:58.066Z,66.44
2019-01-08T08:45:58.049Z,66.53
2019-01-08T08:46:58.034Z,66.25
2019-01-08T08:47:58.017Z,66.63
2019-01-08T08:48:57.999Z,66.63
2019-01-08T08:49:57.978Z,66.53
2019-01-08T08:50:57.714Z,66.63
2019-01-08T08:51:57.949Z,67.2
2019-01-08T08:52:58.004Z,67.86
2019-01-08T08:53:57.906Z,67.74
2019-01-08T08:54:57.889Z,68.24
2019-01-08T08:55:57.881Z,68.24
2019-01-08T08:56:57.863Z,68.43
2019-01-08T08:57:57.836Z,68.33
2019-01-08T08:58:57.822Z,68.15
2019-01-08T08:59:57.804Z,68.15
2019-01-08T09:00:57.788Z,68.24
2019-01-08T09:01:57.765Z,69.57
2019-01-08T09:02:57.748Z,69.47
2019-01-08T09:03:57.732Z,69.95
2019-01-08T09:04:57.713Z,70.42
2019-01-08T09:05:57.693Z,70.7
2019-01-08T09:06:57.677Z,70.23
2019-01-08T09:07:57.667Z,70.42
2019-01-08T09:08:57.637Z,70.51
2019-01-08T09:09:57.625Z,69.95
2019-01-08T09:10:57.605Z,70.14
2019-01-08T09:11:57.588Z,70.04
2019-01-08T09:12:57.635Z,69.76
2019-01-08T09:13:57.559Z,69.57
2019-01-08T09:14:57.535Z,69.47
2019-01-08T09:15:57.517Z,69.47
2019-01-08T09:16:57.558Z,69.76
2019-01-08T09:17:57.495Z,70.42
2019-01-08T09:18:57.462Z,70.42
2019-01-08T09:19:57.447Z,70.04
2019-01-08T09:20:57.433Z,69.28
2019-01-08T09:21:57.409Z,69.28
2019-01-08T09:22:57.395Z,67.96
2019-01-08T09:23:58.561Z,67.11
2019-01-08T09:24:57.357Z,67.2
2019-01-08T09:25:57.339Z,66.63
2019-01-08T09:26:57.326Z,66.53
2019-01-08T09:27:57.305Z,66.16
2019-01-08T09:28:57.036Z,65.88
2019-01-08T09:29:57.277Z,65.4
2019-01-08T09:30:57.301Z,65.4
2019-01-08T09:31:57.230Z,64.64
2019-01-08T09:32:56.966Z,64.71
2019-01-08T09:33:57.196Z,63.79
2019-01-08T09:34:57.181Z,63.13
2019-01-08T09:35:57.159Z,63.23
2019-01-08T09:36:57.145Z,63.13
2019-01-08T09:37:57.126Z,62.47
2019-01-08T09:38:57.108Z,61.87
2019-01-08T09:39:56.841Z,60.83
2019-01-08T09:40:56.833Z,59.88
2019-01-08T09:41:57.065Z,59.53
2019-01-08T09:42:57.042Z,58.3
2019-01-08T09:43:57.020Z,58.3
2019-01-08T09:44:57.007Z,57.54
2019-01-08T09:45:56.986Z,57.64
2019-01-08T09:46:56.963Z,57.17
2019-01-08T09:47:56.949Z,57.17
2019-01-08T09:48:56.931Z,58.02
2019-01-08T09:49:56.912Z,58.11
2019-01-08T09:50:56.891Z,58.3
2019-01-08T09:51:56.879Z,58.49
2019-01-08T09:52:56.858Z,58.4
2019-01-08T09:53:56.836Z,58.09
2019-01-08T09:54:56.823Z,58.11
2019-01-08T09:55:56.807Z,57.26
2019-01-08T09:56:56.803Z,57.26
2019-01-08T09:57:56.765Z,56.41
2019-01-08T09:58:56.751Z,55.84
2019-01-08T09:59:56.735Z,55.27
2019-01-08T10:00:56.718Z,55.46
2019-01-08T10:01:56.702Z,56.13
2019-01-08T10:02:56.680Z,55.65
2019-01-08T10:03:56.916Z,55.94
2019-01-08T10:04:56.643Z,56.7
2019-01-08T10:05:56.544Z,58.11
2019-01-08T10:06:56.609Z,58.59
2019-01-08T10:07:56.588Z,59.25
2019-01-08T10:08:56.570Z,59.53
2019-01-08T10:09:56.554Z,58.59
2019-01-08T10:10:56.534Z,58.59
2019-01-08T10:11:56.528Z,58.68
2019-01-08T10:12:56.496Z,59.63
2019-01-08T10:13:56.480Z,61.24
2019-01-08T10:14:56.467Z,62.47
2019-01-08T10:15:56.200Z,62.75
2019-01-08T10:16:56.179Z,62.75
2019-01-08T10:17:56.408Z,63.13
2019-01-08T10:18:56.395Z,63.51
2019-01-08T10:19:56.373Z,62.75
2019-01-08T10:20:56.358Z,62.47
2019-01-08T10:21:56.340Z,63.89
2019-01-08T10:22:56.323Z,65.4
2019-01-08T10:23:56.306Z,67.68
2019-01-08T10:24:56.290Z,67.39
2019-01-08T10:25:56.272Z,67.2
2019-01-08T10:26:56.015Z,67.49
2019-01-08T10:27:56.236Z,67.58
2019-01-08T10:28:56.217Z,67.68
2019-01-08T10:29:57.032Z,67.86
2019-01-08T10:30:56.184Z,69.38
2019-01-08T10:31:56.166Z,69.57
2019-01-08T10:32:56.150Z,69
2019-01-08T10:33:56.127Z,68.24
2019-01-08T10:34:56.110Z,67.96
2019-01-08T10:35:56.107Z,67.86
2019-01-08T10:36:56.080Z,67.58
2019-01-08T10:37:56.063Z,68.05
2019-01-08T10:38:56.048Z,68.52
2019-01-08T10:39:56.022Z,69.09
2019-01-08T10:40:56.008Z,69.95
2019-01-08T10:41:55.988Z,71.27
2019-01-08T10:42:55.972Z,72.03
2019-01-08T10:43:55.957Z,71.65
2019-01-08T10:44:55.945Z,71.46
2019-01-08T10:45:55.921Z,71.27
2019-01-08T10:46:55.651Z,70.23
2019-01-08T10:47:55.884Z,70.04
2019-01-08T10:48:55.617Z,69.95
2019-01-08T10:49:55.852Z,70.23
2019-01-08T10:50:55.831Z,70.14
2019-01-08T10:51:55.813Z,69.66
2019-01-08T10:52:55.797Z,69.28
2019-01-08T10:53:55.865Z,68.52
2019-01-08T10:54:55.758Z,68.52
2019-01-08T10:55:55.741Z,68.62
2019-01-08T10:56:55.726Z,68.52
2019-01-08T10:57:55.751Z,68.62
2019-01-08T10:58:55.697Z,68.9
2019-01-08T10:59:55.669Z,68.24
2019-01-08T11:00:55.655Z,67.96
2019-01-08T11:01:55.638Z,69.47
2019-01-08T11:02:55.622Z,71.08
2019-01-08T11:03:55.601Z,72.31
2019-01-08T11:04:55.585Z,73.73
2019-01-08T11:05:55.567Z,74.02
2019-01-08T11:06:55.557Z,74.49
2019-01-08T11:07:55.285Z,75.72
2019-01-08T11:08:55.516Z,74.77
2019-01-08T11:09:55.498Z,75.53
2019-01-08T11:10:55.479Z,74.58
2019-01-08T11:11:55.467Z,73.83
2019-01-08T11:12:55.446Z,73.92
2019-01-08T11:13:55.426Z,74.68
2019-01-08T11:14:55.410Z,73.92
2019-01-08T11:15:55.390Z,73.35
2019-01-08T11:16:55.377Z,74.77
2019-01-08T11:17:55.357Z,74.3
2019-01-08T11:18:55.346Z,74.21
2019-01-08T11:19:55.325Z,76.19
2019-01-08T11:20:55.311Z,75.53
2019-01-08T11:21:55.292Z,75.53
2019-01-08T11:22:55.268Z,74.68
2019-01-08T11:23:55.253Z,74.49
2019-01-08T11:24:55.232Z,73.45
2019-01-08T11:25:55.215Z,72.97
2019-01-08T11:26:55.199Z,71.46
2019-01-08T11:27:55.180Z,71.55
2019-01-08T11:28:55.173Z,71.46
2019-01-08T11:29:55.145Z,71.65
2019-01-08T11:30:55.133Z,71.27
2019-01-08T11:31:55.110Z,71.93
2019-01-08T11:32:56.181Z,71.27
2019-01-08T11:33:54.830Z,70.61
2019-01-08T11:34:55.066Z,70.23
2019-01-08T11:35:54.796Z,73.07
2019-01-08T11:36:55.027Z,73.92
2019-01-08T11:37:55.009Z,73.73
2019-01-08T11:38:54.989Z,73.26
2019-01-08T11:39:54.971Z,74.3
2019-01-08T11:40:54.953Z,74.58
2019-01-08T11:41:54.948Z,74.87
2019-01-08T11:42:54.927Z,74.87
2019-01-08T11:43:54.656Z,74.96
2019-01-08T11:44:54.897Z,73.92
2019-01-08T11:45:54.866Z,74.58
2019-01-08T11:46:54.606Z,75.53
2019-01-08T11:47:54.835Z,74.87
2019-01-08T11:48:54.819Z,75.24
2019-01-08T11:49:54.801Z,75.24
2019-01-08T11:50:54.778Z,76.29
2019-01-08T11:51:54.764Z,75.91
2019-01-08T11:52:54.579Z,76.38
2019-01-08T11:53:54.728Z,77.04
2019-01-08T11:54:54.717Z,76.19
2019-01-08T11:55:54.695Z,75.05
2019-01-08T11:56:54.678Z,73.73
2019-01-08T11:57:54.414Z,74.4
2019-01-08T11:58:54.645Z,75.91
2019-01-08T11:59:54.629Z,75.95
2019-01-08T12:00:54.605Z,77.18
2019-01-08T12:02:00.258Z,76.89
2019-01-08T12:02:54.577Z,78.98
2019-01-08T12:03:54.557Z,79.26
2019-01-08T12:04:54.538Z,79.17
2019-01-08T12:05:54.520Z,78.69
2019-01-08T12:06:54.504Z,79.07
2019-01-08T12:07:54.488Z,79.74
2019-01-08T12:08:54.473Z,79.36
2019-01-08T12:09:54.451Z,78.85
2019-01-08T12:10:54.437Z,79.22
2019-01-08T12:11:54.414Z,80.36
2019-01-08T12:12:54.398Z,80.55
2019-01-08T12:13:54.387Z,80.36
2019-01-08T12:14:54.363Z,82.53
2019-01-08T12:15:54.349Z,83.58
2019-01-08T12:16:54.335Z,83.86
2019-01-08T12:17:54.318Z,84.05
2019-01-08T12:18:54.049Z,83.39
2019-01-08T12:19:54.279Z,82.72
2019-01-08T12:20:54.259Z,82.63
2019-01-08T12:21:54.249Z,83.58
2019-01-08T12:22:54.228Z,83.01
2019-01-08T12:23:54.211Z,82.34
2019-01-08T12:24:54.190Z,83.76
2019-01-08T12:25:54.176Z,83.29
2019-01-08T12:26:54.158Z,82.72
2019-01-08T12:27:54.141Z,81.49
2019-01-08T12:28:54.127Z,79.88
2019-01-08T12:29:53.857Z,78.85
2019-01-08T12:30:54.092Z,78.18
2019-01-08T12:31:55.763Z,76.86
2019-01-08T12:32:54.060Z,76
2019-01-08T12:33:54.039Z,75.05
2019-01-08T12:34:54.017Z,74.3
2019-01-08T12:35:54.013Z,73.54
2019-01-08T12:36:53.985Z,72.69
2019-01-08T12:37:53.964Z,72.69
2019-01-08T12:38:53.949Z,72.88
2019-01-08T12:39:53.934Z,73.26
2019-01-08T12:40:53.912Z,74.02
2019-01-08T12:41:53.898Z,73.92
2019-01-08T12:42:53.630Z,74.49
2019-01-08T12:43:55.668Z,74.68
2019-01-08T12:44:53.852Z,74.87
2019-01-08T12:45:53.825Z,75.53
2019-01-08T12:46:53.810Z,74.4
2019-01-08T12:47:53.794Z,73.54
2019-01-08T12:48:53.773Z,72.5
2019-01-08T12:49:54.456Z,71.27
2019-01-08T12:50:53.741Z,69.95
2019-01-08T12:51:53.474Z,69.34
2019-01-08T12:52:53.706Z,68.21
2019-01-08T12:53:53.440Z,68.4
2019-01-08T12:54:53.668Z,67.83